VEMN

Details ICAO VEMN (MOH)
Name DIBRUGARH
Region India
Timezone Asia/Kolkata (UTC+5.5)
Plans Departing 9
Arriving 8
Stats Elevation 362 ft / 110 m (AMSL)
Location 27.483852° 95.016921°
Runways 1
Magnetic Variation 0.434° W
Sunrise 2017-12-14 00:23:15 UTC / 2017-12-14 05:53:15 Local
Sunset 2017-12-14 10:48:32 UTC / 2017-12-14 16:18:32 Local
Advertisement - Login to hide

Runways

ID Width Length Bearing (true) Bearing (mag) Surface Threshold Offset Overrun Length
05 148 ft / 45 m 6,030 ft / 1,838 m 45.21° 45.64° Asphalt 0 ft / 0 m 200 ft / 61 m
23 148 ft / 45 m 6,030 ft / 1,838 m 225.22° 225.65° Asphalt 600 ft / 183 m 180 ft / 55 m

Approach Navaids

Runway Type Ident Frequency Range Bearing (true) Bearing (mag) Slope Elevation
05 Localiser DIB 109.50 MHz 18 nm / 33 km 50.70° 51.13° - 362 ft / 110 m (AMSL)
05 Glidescope DIB 109.50 MHz 10 nm / 19 km 45.21° 45.65° 3.00° 362 ft / 110 m (AMSL)
05 DME DIB 109.50 MHz 18 nm / 33 km - - - 416 ft / 127 m (AMSL)

Map

Weather


0- 5 10 15 20 25 30 35+ Temperature / ° C

Clouds and Precipitation
Forecast for 2017-12-14 12:00 UTC. Updated an hour ago

Ground ~20,000 ft ~40,000 ft Winds

METAR

VEMN 141000Z 02003KT 4000 HZ SCT100 23/18 Q1013 BECMG 3000 BR

TAF

Not found

Frequencies

Tower 122.70 MHz TWR
Tower 123.50 MHz TWR
Warning: Do not use this data for real-world aviation or navigation. No guarantee of current accuracy is given.